Terminal Aerodrome Forecast
Issued by NWS Pittsburgh, PA

Current Version | Previous Version | Text Only | Print | Product List | Glossary Off
Versions: 1 2 3 4 5 6 7 8 9 10 11 12 13 14 15 16 17 18 19 20 21 22 23 24 25 26 27 28 29 30

000
FTUS41 KPBZ 271100
TAFPIT
TAF
KPIT 271120Z 2712/2818 32008KT 6SM -SN OVC010
      TEMPO 2712/2714 4SM -SN
     FM271700 33012KT P6SM OVC025
     FM280400 34008KT P6SM BKN025
     FM281300 VRB03KT P6SM SKC=

USA.gov is the U.S. government's official web portal to all federal, state and local government web resources and services.